Time;durP1;ratioP1;P1;durP2;ratioP2;P2;SDS_P1;SDS_P2;PMS_P1;PMS_P2;Temp;Humidity;BMP_temperature;BMP_pressure;BME280_temperature;BME280_humidity;BME280_pressure;Samples;Min_cycle;Max_cycle;Signal;HPM_P1;HPM_P2
2023/10/02 00:00:42;;;;;;;;;;;;;;;15.75;100.00;102012.59;5034103;28;20254;-74
2023/10/02 00:03:09;;;;;;;;;;;;;;;15.74;100.00;102006.31;5028508;28;20444;-74
2023/10/02 00:05:50;;;;;;;;;;;;;;;15.72;100.00;102010.16;5033082;28;19917;-75
2023/10/02 00:08:31;;;;;;;;;;;;;;;15.74;100.00;102011.72;5026997;28;20544;-74
2023/10/02 00:11:05;;;;;;;;;;;;;;;15.74;100.00;102006.31;5027586;28;19920;-74
2023/10/02 00:13:30;;;;;;;;;;;;;;;15.71;100.00;102011.97;5015164;28;20282;-74
2023/10/02 00:15:55;;;;;;;;;;;;;;;15.66;100.00;102006.06;5030322;28;19925;-74
2023/10/02 00:18:21;;;;;;;;;;;;;;;15.69;100.00;102007.69;5025465;28;19971;-74
2023/10/02 00:21:17;;;;;;;;;;;;;;;15.66;100.00;102005.22;5025644;28;20019;-74
2023/10/02 00:23:33;;;;;;;;;;;;;;;15.53;100.00;101999.94;5030947;28;20454;-74
2023/10/02 00:26:03;;;;;;;;;;;;;;;15.39;100.00;102011.88;5029496;28;20367;-74
2023/10/02 00:28:33;;;;;;;;;;;;;;;15.33;100.00;102013.22;5007400;28;19928;-74
2023/10/02 00:30:58;;;;;;;;;;;;;;;15.32;100.00;102006.09;5030074;28;19927;-74
2023/10/02 00:33:27;;;;;;;;;;;;;;;15.29;100.00;102012.59;5024825;28;19921;-74
2023/10/02 00:35:56;;;;;;;;;;;;;;;15.27;100.00;102014.56;5010949;28;19928;-74
2023/10/02 00:38:23;;;;;;;;;;;;;;;15.22;100.00;102005.09;5017490;28;19972;-74
2023/10/02 00:40:49;;;;;;;;;;;;;;;15.16;100.00;102003.75;5020301;28;19925;-74
2023/10/02 00:46:01;;;;;;;;;;;;;;;15.13;100.00;101998.56;5015236;28;20377;-74
2023/10/02 00:48:30;;;;;;;;;;;;;;;15.17;100.00;102002.75;5030883;28;20054;-74
2023/10/02 00:50:59;;;;;;;;;;;;;;;15.19;100.00;101998.09;5027946;28;19962;-74
2023/10/02 00:53:37;;;;;;;;;;;;;;;15.19;100.00;101999.91;5001742;28;20019;-74
2023/10/02 00:56:19;;;;;;;;;;;;;;;15.06;100.00;101997.31;5023511;28;19971;-74
2023/10/02 00:58:45;;;;;;;;;;;;;;;15.00;100.00;101987.84;5023979;28;19925;-74
2023/10/02 01:01:11;;;;;;;;;;;;;;;14.94;100.00;101993.75;5015690;28;20309;-74
2023/10/02 01:04:07;;;;;;;;;;;;;;;14.90;100.00;101990.44;5028755;28;19917;-73
2023/10/02 01:06:22;;;;;;;;;;;;;;;14.86;100.00;101991.66;5025791;28;19917;-74
2023/10/02 01:08:49;;;;;;;;;;;;;;;14.89;100.00;101990.53;5024244;28;19959;-74
2023/10/02 01:11:14;;;;;;;;;;;;;;;14.93;100.00;101992.91;5027189;28;20462;-74
2023/10/02 01:13:39;;;;;;;;;;;;;;;14.85;100.00;101990.75;5030551;28;20084;-73
2023/10/02 01:16:08;;;;;;;;;;;;;;;14.86;100.00;101986.25;5028120;28;19931;-74
2023/10/02 01:18:39;;;;;;;;;;;;;;;14.85;100.00;101987.22;5026284;28;19947;-74
2023/10/02 01:21:11;;;;;;;;;;;;;;;14.79;100.00;101993.97;5017243;28;19982;-73
2023/10/02 01:24:06;;;;;;;;;;;;;;;14.80;100.00;101994.81;5030887;28;19925;-73
2023/10/02 01:26:32;;;;;;;;;;;;;;;14.82;100.00;101996.44;5030845;28;19925;-74
2023/10/02 01:29:00;;;;;;;;;;;;;;;14.84;100.00;101994.44;5017641;28;20271;-74
2023/10/02 01:31:31;;;;;;;;;;;;;;;14.83;100.00;101987.31;5031368;28;19966;-73
2023/10/02 01:33:58;;;;;;;;;;;;;;;14.83;100.00;101983.75;5027907;28;19921;-74
2023/10/02 01:36:28;;;;;;;;;;;;;;;14.85;100.00;101981.81;5030903;28;19952;-74
2023/10/02 01:38:59;;;;;;;;;;;;;;;14.82;100.00;101987.44;5011310;28;20012;-74
2023/10/02 01:41:26;;;;;;;;;;;;;;;14.80;100.00;101986.69;5014516;28;20011;-74
2023/10/02 01:43:52;;;;;;;;;;;;;;;14.69;100.00;101992.94;5027247;28;20449;-73
2023/10/02 01:46:17;;;;;;;;;;;;;;;14.67;100.00;101993.03;5025441;28;20313;-74
2023/10/02 01:48:48;;;;;;;;;;;;;;;14.64;100.00;101992.41;5029961;28;20366;-74
2023/10/02 01:51:20;;;;;;;;;;;;;;;14.59;100.00;101997.28;5032692;28;20099;-74
2023/10/02 01:53:48;;;;;;;;;;;;;;;14.58;100.00;101984.75;5016274;28;19952;-75
2023/10/02 01:56:15;;;;;;;;;;;;;;;14.52;100.00;101986.09;5028727;28;19921;-74
2023/10/02 01:58:40;;;;;;;;;;;;;;;14.50;100.00;101991.63;5012888;28;20041;-74
2023/10/02 02:01:09;;;;;;;;;;;;;;;14.47;100.00;101985.59;5029779;28;20058;-73
2023/10/02 02:03:34;;;;;;;;;;;;;;;14.52;100.00;101983.41;5030342;28;20279;-72
2023/10/02 02:06:08;;;;;;;;;;;;;;;14.61;100.00;101981.81;5029392;28;19921;-73
2023/10/02 02:08:35;;;;;;;;;;;;;;;14.63;100.00;101991.56;5026659;28;19921;-74
2023/10/02 02:11:14;;;;;;;;;;;;;;;14.58;100.00;101973.94;5001733;28;20742;-74
2023/10/02 02:13:44;;;;;;;;;;;;;;;14.59;100.00;101978.38;5028262;28;20379;-74
2023/10/02 02:16:14;;;;;;;;;;;;;;;14.60;100.00;101980.09;5021079;28;19920;-73
2023/10/02 02:18:42;;;;;;;;;;;;;;;14.66;100.00;101985.03;5025392;28;20743;-74
2023/10/02 02:21:10;;;;;;;;;;;;;;;14.65;100.00;101973.38;5031751;28;19924;-74
2023/10/02 02:23:35;;;;;;;;;;;;;;;14.63;100.00;101978.03;5012105;28;19942;-74
2023/10/02 02:26:01;;;;;;;;;;;;;;;14.69;100.00;101974.91;5027132;28;19925;-73
2023/10/02 02:28:28;;;;;;;;;;;;;;;14.66;100.00;101976.94;5009153;28;20012;-73
2023/10/02 02:30:55;;;;;;;;;;;;;;;14.52;100.00;101984.28;5014095;28;19968;-73
2023/10/02 02:33:34;;;;;;;;;;;;;;;14.49;100.00;101972.81;5027825;28;20118;-74
2023/10/02 02:36:05;;;;;;;;;;;;;;;14.61;100.00;101971.88;5027389;28;19933;-74
2023/10/02 02:38:33;;;;;;;;;;;;;;;14.55;100.00;101975.94;5022543;28;20344;-73
2023/10/02 02:41:05;;;;;;;;;;;;;;;14.51;100.00;101969.03;5018349;28;19925;-74
2023/10/02 02:43:30;;;;;;;;;;;;;;;14.55;100.00;101969.66;5027466;28;19921;-74
2023/10/02 02:45:55;;;;;;;;;;;;;;;14.54;100.00;101974.22;5028312;28;20331;-74
2023/10/02 02:48:20;;;;;;;;;;;;;;;14.55;100.00;101967.81;5024019;28;20298;-74
2023/10/02 02:50:47;;;;;;;;;;;;;;;14.51;100.00;101970.88;5029894;28;20560;-74
2023/10/02 02:53:21;;;;;;;;;;;;;;;14.51;100.00;101970.88;5015349;28;19925;-74
2023/10/02 02:56:18;;;;;;;;;;;;;;;14.59;100.00;101962.16;5031751;28;19935;-74
2023/10/02 02:58:50;;;;;;;;;;;;;;;14.65;100.00;101957.16;5032368;28;19979;-74
2023/10/02 03:01:22;;;;;;;;;;;;;;;14.64;100.00;101960.84;5020600;28;20250;-73
2023/10/02 03:04:11;;;;;;;;;;;;;;;14.64;100.00;101951.84;5033414;28;19962;-74
2023/10/02 03:06:36;;;;;;;;;;;;;;;14.62;100.00;101945.72;5031414;28;19955;-74
2023/10/02 03:09:01;;;;;;;;;;;;;;;14.62;100.00;101943.88;5029991;28;20353;-76
2023/10/02 03:11:28;;;;;;;;;;;;;;;14.61;100.00;101952.97;5031638;28;20375;-74
2023/10/02 03:14:11;;;;;;;;;;;;;;;14.64;100.00;101951.84;5030538;28;19924;-74
2023/10/02 03:16:37;;;;;;;;;;;;;;;14.63;100.00;101950.13;5030236;28;19920;-74
2023/10/02 03:19:03;;;;;;;;;;;;;;;14.67;100.00;101943.50;5020751;28;19921;-74
2023/10/02 03:21:30;;;;;;;;;;;;;;;14.54;100.00;101943.59;5018698;28;19917;-73
2023/10/02 03:23:58;;;;;;;;;;;;;;;14.50;100.00;101943.00;5013637;28;19924;-74
2023/10/02 03:26:27;;;;;;;;;;;;;;;14.51;100.00;101933.03;5013682;28;19921;-74
2023/10/02 03:29:00;;;;;;;;;;;;;;;14.44;100.00;101937.19;5028732;28;19925;-73
2023/10/02 03:31:34;;;;;;;;;;;;;;;14.51;100.00;101931.22;5033999;28;19924;-73
2023/10/02 03:34:00;;;;;;;;;;;;;;;14.56;100.00;101933.53;5034164;28;20409;-73
2023/10/02 03:36:27;;;;;;;;;;;;;;;14.52;100.00;101932.94;5014161;28;19931;-74
2023/10/02 03:38:54;;;;;;;;;;;;;;;14.53;100.00;101936.47;5012388;28;20195;-73
2023/10/02 03:41:20;;;;;;;;;;;;;;;14.52;100.00;101934.75;5030823;28;20414;-74
2023/10/02 03:43:46;;;;;;;;;;;;;;;14.63;100.00;101932.09;5030412;28;19923;-74
2023/10/02 03:46:15;;;;;;;;;;;;;;;14.47;100.00;101926.13;5029264;28;19943;-74
2023/10/02 03:48:40;;;;;;;;;;;;;;;14.50;100.00;101934.00;5029532;28;19935;-73
2023/10/02 03:51:08;;;;;;;;;;;;;;;14.52;100.00;101940.16;5033573;28;19950;-73
2023/10/02 03:53:34;;;;;;;;;;;;;;;14.52;100.00;101935.63;5012856;28;20438;-73
2023/10/02 03:58:47;;;;;;;;;;;;;;;14.49;100.00;101929.59;5032061;28;19932;-74
2023/10/02 04:01:17;;;;;;;;;;;;;;;14.41;100.00;101930.19;5031772;28;19921;-74
2023/10/02 04:06:33;;;;;;;;;;;;;;;14.42;100.00;101934.59;5030589;28;20220;-74
2023/10/02 04:09:26;;;;;;;;;;;;;;;14.43;100.00;101930.09;5033797;28;19921;-74
2023/10/02 04:11:52;;;;;;;;;;;;;;;14.37;100.00;101932.28;5030035;28;19921;-74
2023/10/02 04:14:33;;;;;;;;;;;;;;;14.36;100.00;101937.78;5015436;28;20370;-75
2023/10/02 04:19:40;;;;;;;;;;;;;;;14.66;100.00;101922.88;5013765;28;19925;-75
2023/10/02 04:22:06;;;;;;;;;;;;;;;14.62;100.00;101918.69;5028874;28;19920;-73
2023/10/02 04:24:58;;;;;;;;;;;;;;;14.65;100.00;101921.16;5027286;28;19928;-74
2023/10/02 04:27:28;;;;;;;;;;;;;;;14.72;100.00;101924.25;5029594;28;19968;-74
2023/10/02 04:32:32;;;;;;;;;;;;;;;15.02;100.00;101923.69;5029646;28;20586;-75
2023/10/02 04:34:57;;;;;;;;;;;;;;;15.12;100.00;101923.81;5030177;28;20015;-74
2023/10/02 04:37:22;;;;;;;;;;;;;;;15.10;100.00;101921.22;5011428;28;19927;-75
2023/10/02 04:39:54;;;;;;;;;;;;;;;15.03;100.00;101917.31;5024912;28;20513;-75
2023/10/02 04:42:21;;;;;;;;;;;;;;;14.96;100.00;101925.03;5028788;28;19967;-75
2023/10/02 04:44:48;;;;;;;;;;;;;;;14.93;100.00;101929.81;5028570;28;19922;-74
2023/10/02 04:47:19;;;;;;;;;;;;;;;14.86;100.00;101924.06;5026479;28;19921;-75
2023/10/02 04:55:23;;;;;;;;;;;;;;;14.95;100.00;101931.44;5011194;28;19955;-74
2023/10/02 04:57:50;;;;;;;;;;;;;;;14.93;100.00;101927.13;5015482;28;21216;-75
2023/10/02 05:00:34;;;;;;;;;;;;;;;14.93;100.00;101935.22;5010024;28;19927;-73
2023/10/02 05:03:18;;;;;;;;;;;;;;;14.92;100.00;101937.09;5026674;28;20063;-73
2023/10/02 05:05:47;;;;;;;;;;;;;;;14.81;100.00;101937.06;5028044;28;19931;-74
2023/10/02 05:08:19;;;;;;;;;;;;;;;14.80;100.00;101924.53;5027357;28;20011;-74
2023/10/02 05:10:47;;;;;;;;;;;;;;;14.81;100.00;101927.13;5031858;28;19921;-74
2023/10/02 05:13:12;;;;;;;;;;;;;;;14.81;100.00;101928.94;5009708;28;19921;-74
2023/10/02 05:16:06;;;;;;;;;;;;;;;14.80;100.00;101920.00;5026060;28;19971;-73
2023/10/02 05:18:23;;;;;;;;;;;;;;;14.74;100.00;101917.78;5029847;28;19971;-73
2023/10/02 05:20:48;;;;;;;;;;;;;;;14.69;100.00;101928.06;5024467;28;20754;-73
2023/10/02 05:23:13;;;;;;;;;;;;;;;14.66;100.00;101922.88;5014523;28;19928;-73
2023/10/02 05:25:41;;;;;;;;;;;;;;;14.58;100.00;101917.19;5030367;28;19963;-73
2023/10/02 05:28:07;;;;;;;;;;;;;;;14.52;100.00;101919.41;5027106;28;19966;-73
2023/10/02 05:30:41;;;;;;;;;;;;;;;14.47;100.00;101921.63;5025213;28;19929;-73
2023/10/02 05:33:07;;;;;;;;;;;;;;;14.37;100.00;101926.88;5027694;28;19927;-73
2023/10/02 05:35:33;;;;;;;;;;;;;;;14.36;100.00;101933.25;5033242;28;19929;-73
2023/10/02 05:37:58;;;;;;;;;;;;;;;14.34;100.00;101934.31;5027420;28;19924;-73
2023/10/02 05:45:38;;;;;;;;;;;;;;;14.29;100.00;101928.44;5030881;28;19935;-73
2023/10/02 05:48:07;;;;;;;;;;;;;;;14.28;100.00;101934.81;5028242;28;20417;-73
2023/10/02 05:50:33;;;;;;;;;;;;;;;14.32;100.00;101939.84;5029844;28;19994;-73
2023/10/02 05:52:58;;;;;;;;;;;;;;;14.33;100.00;101941.59;5026972;28;20399;-73
2023/10/02 05:55:25;;;;;;;;;;;;;;;14.39;100.00;101942.94;5009574;28;19925;-73
2023/10/02 05:57:54;;;;;;;;;;;;;;;14.37;100.00;101953.00;5028957;28;19920;-74
2023/10/02 06:00:20;;;;;;;;;;;;;;;14.38;100.00;101935.81;5031134;28;20411;-73
2023/10/02 06:02:57;;;;;;;;;;;;;;;14.36;100.00;101948.56;5026596;28;19921;-73
2023/10/02 06:05:23;;;;;;;;;;;;;;;14.36;100.00;101948.56;5028338;28;20363;-73
2023/10/02 06:07:51;;;;;;;;;;;;;;;14.45;100.00;101947.88;5029013;28;20358;-73
2023/10/02 06:10:25;;;;;;;;;;;;;;;14.43;100.00;101946.28;5026857;28;19987;-73
2023/10/02 06:13:05;;;;;;;;;;;;;;;14.40;100.00;101947.38;5025410;28;20003;-73
2023/10/02 06:15:43;;;;;;;;;;;;;;;14.60;100.00;101944.97;5027544;28;19955;-76
2023/10/02 06:18:08;;;;;;;;;;;;;;;14.63;100.00;101948.31;5010767;28;19928;-75
2023/10/02 06:20:34;;;;;;;;;;;;;;;14.68;100.00;101939.84;5029770;28;20425;-74
2023/10/02 06:23:19;;;;;;;;;;;;;;;14.69;100.00;101945.16;5027392;28;19948;-74
2023/10/02 06:25:45;;;;;;;;;;;;;;;14.72;100.00;101949.47;5028646;28;19927;-75
2023/10/02 06:28:28;;;;;;;;;;;;;;;14.79;100.00;101957.94;5032188;28;19921;-73
2023/10/02 06:30:56;;;;;;;;;;;;;;;14.83;100.00;101962.13;5034436;28;19925;-74
2023/10/02 06:33:22;;;;;;;;;;;;;;;14.88;100.00;101953.66;5033687;28;19924;-74
2023/10/02 06:35:57;;;;;;;;;;;;;;;14.97;100.00;101958.34;5029725;28;20309;-75
2023/10/02 06:38:22;;;;;;;;;;;;;;;14.99;100.00;101956.38;5032511;28;19929;-75
2023/10/02 06:40:57;;;;;;;;;;;;;;;14.93;100.00;101965.84;5033080;28;19925;-75
2023/10/02 06:43:32;;;;;;;;;;;;;;;14.99;100.00;101962.63;5031488;28;20441;-75
2023/10/02 06:46:15;;;;;;;;;;;;;;;15.05;100.00;101965.84;5029125;28;19921;-74
2023/10/02 06:48:44;;;;;;;;;;;;;;;15.12;100.00;101967.94;5030152;28;19925;-75
2023/10/02 06:51:10;;;;;;;;;;;;;;;15.27;100.00;101971.28;5033601;28;19924;-74
2023/10/02 06:53:40;;;;;;;;;;;;;;;15.30;100.00;101962.91;5033768;28;19921;-74
2023/10/02 06:56:10;;;;;;;;;;;;;;;15.36;100.00;101963.41;5013316;28;19925;-73
2023/10/02 06:58:46;;;;;;;;;;;;;;;15.42;100.00;101961.06;5026239;28;20275;-74
2023/10/02 07:01:12;;;;;;;;;;;;;;;15.46;100.00;101956.28;5033037;28;19921;-75
2023/10/02 07:03:39;;;;;;;;;;;;;;;15.46;100.00;101958.97;5035084;28;19921;-74
2023/10/02 07:06:07;;;;;;;;;;;;;;;15.54;100.00;101964.63;5035687;28;20294;-75
2023/10/02 07:08:34;;;;;;;;;;;;;;;15.58;100.00;101960.69;5031605;28;19929;-74
2023/10/02 07:11:01;;;;;;;;;;;;;;;15.64;100.00;101959.31;5027530;28;19920;-74
2023/10/02 07:13:26;;;;;;;;;;;;;;;15.77;100.00;101959.16;4995749;28;20386;-74
2023/10/02 07:15:59;;;;;;;;;;;;;;;15.86;100.00;101960.31;5015606;28;20019;-74
2023/10/02 07:18:35;;;;;;;;;;;;;;;15.90;100.00;101959.03;5027081;28;19967;-74
2023/10/02 07:21:00;;;;;;;;;;;;;;;16.00;100.00;101964.56;5037648;28;20302;-73
2023/10/02 07:23:29;;;;;;;;;;;;;;;16.01;100.00;101964.44;5032334;28;20363;-74
2023/10/02 07:25:54;;;;;;;;;;;;;;;16.10;100.00;101962.81;5035145;28;20008;-74
2023/10/02 07:28:21;;;;;;;;;;;;;;;16.26;100.00;101956.09;5034200;28;20273;-75
2023/10/02 07:30:46;;;;;;;;;;;;;;;16.25;100.00;101967.94;5034153;28;19916;-76
2023/10/02 07:33:12;;;;;;;;;;;;;;;16.40;100.00;101961.19;5035452;28;19927;-74
2023/10/02 07:35:37;;;;;;;;;;;;;;;16.53;100.00;101965.59;5033127;28;19925;-75
2023/10/02 07:38:08;;;;;;;;;;;;;;;16.66;100.00;101966.25;5026898;28;19928;-74
2023/10/02 07:40:48;;;;;;;;;;;;;;;16.71;100.00;101963.13;5033518;28;20002;-74
2023/10/02 07:43:16;;;;;;;;;;;;;;;16.89;100.00;101961.53;5031075;28;20229;-75
2023/10/02 07:45:42;;;;;;;;;;;;;;;17.04;100.00;101953.06;5028131;28;20003;-74
2023/10/02 07:48:12;;;;;;;;;;;;;;;17.12;100.00;101957.81;5034197;28;19924;-75
2023/10/02 07:50:39;;;;;;;;;;;;;;;17.32;100.00;101954.22;5036681;28;19921;-74
2023/10/02 07:53:06;;;;;;;;;;;;;;;17.53;100.00;101945.13;5032499;28;20011;-76
2023/10/02 07:55:32;;;;;;;;;;;;;;;17.58;100.00;101945.59;5031345;28;19925;-73
2023/10/02 07:58:01;;;;;;;;;;;;;;;17.68;100.00;101948.31;5030713;28;19925;-77
2023/10/02 08:00:39;;;;;;;;;;;;;;;17.67;100.00;101958.31;5029987;28;19963;-75
2023/10/02 08:05:56;;;;;;;;;;;;;;;17.65;100.00;101956.75;5032485;28;19928;-75
2023/10/02 08:08:21;;;;;;;;;;;;;;;17.60;100.00;101949.03;5019561;28;20268;-75
2023/10/02 08:10:49;;;;;;;;;;;;;;;17.62;100.00;101944.28;5034949;28;20386;-75
2023/10/02 08:13:16;;;;;;;;;;;;;;;17.68;100.00;101940.19;5026376;28;20574;-75
2023/10/02 08:15:44;;;;;;;;;;;;;;;17.75;100.00;101943.19;5025484;28;20150;-75
2023/10/02 08:18:17;;;;;;;;;;;;;;;17.86;100.00;101953.06;5034744;28;19920;-74
2023/10/02 08:20:43;;;;;;;;;;;;;;;17.89;100.00;101947.34;5031510;28;21804;-74
2023/10/02 08:23:24;;;;;;;;;;;;;;;17.97;100.00;101953.78;5025734;28;20375;-75
2023/10/02 08:26:00;;;;;;;;;;;;;;;18.05;100.00;101961.25;5032235;28;20748;-73
2023/10/02 08:28:29;;;;;;;;;;;;;;;17.96;100.00;101962.94;5027516;28;19939;-74
2023/10/02 08:30:59;;;;;;;;;;;;;;;18.03;100.00;101965.13;5028007;28;19952;-75
2023/10/02 08:33:25;;;;;;;;;;;;;;;18.02;100.00;101972.41;5034300;28;19928;-74
2023/10/02 08:35:51;;;;;;;;;;;;;;;18.00;100.00;101971.72;5030787;28;19925;-75
2023/10/02 08:38:23;;;;;;;;;;;;;;;18.19;100.00;101975.44;5007735;28;19927;-74
2023/10/02 08:40:57;;;;;;;;;;;;;;;18.49;100.00;101965.44;5027075;28;20618;-74
2023/10/02 08:43:23;;;;;;;;;;;;;;;18.59;100.00;101967.16;5015080;28;20278;-74
2023/10/02 08:45:48;;;;;;;;;;;;;;;18.78;100.00;101972.69;5030127;28;19925;-76
2023/10/02 08:48:17;;;;;;;;;;;;;;;18.90;100.00;101966.06;5033083;28;19921;-74
2023/10/02 08:50:46;;;;;;;;;;;;;;;19.24;100.00;101968.28;5032234;28;19920;-74
2023/10/02 08:53:19;;;;;;;;;;;;;;;19.46;100.00;101952.56;5028871;28;19921;-73
2023/10/02 08:58:16;;;;;;;;;;;;;;;20.02;100.00;101950.66;5028560;28;19929;-74
2023/10/02 09:03:41;;;;;;;;;;;;;;;19.82;100.00;101944.47;5030016;28;19974;-74
2023/10/02 09:06:25;;;;;;;;;;;;;;;19.86;100.00;101947.75;5028280;28;19925;-75
2023/10/02 09:09:12;;;;;;;;;;;;;;;19.89;100.00;101942.03;5015285;28;19925;-73
2023/10/02 09:11:38;;;;;;;;;;;;;;;19.93;100.00;101940.72;5024966;28;19917;-74
2023/10/02 09:14:21;;;;;;;;;;;;;;;19.94;100.00;101936.97;5016251;28;20011;-73
2023/10/02 09:19:38;;;;;;;;;;;;;;;20.07;100.00;101937.44;5028277;28;20409;-74
2023/10/02 09:22:06;;;;;;;;;;;;;;;20.15;100.00;101924.91;5032939;28;19924;-75
2023/10/02 09:24:35;;;;;;;;;;;;;;;20.36;100.00;101946.38;5029749;28;19921;-74
2023/10/02 09:29:49;;;;;;;;;;;;;;;20.33;100.00;101939.34;5027475;28;19932;-73
2023/10/02 09:32:24;;;;;;;;;;;;;;;20.28;100.00;101944.41;5027481;28;19921;-75
2023/10/02 09:35:11;;;;;;;;;;;;;;;20.21;100.00;101949.66;5030526;28;19921;-74
2023/10/02 09:37:41;;;;;;;;;;;;;;;20.21;100.00;101951.53;5013082;28;20285;-75
2023/10/02 09:40:17;;;;;;;;;;;;;;;20.20;100.00;101939.75;5030440;28;19996;-75
2023/10/02 09:42:46;;;;;;;;;;;;;;;20.36;100.00;101938.22;5032619;28;19974;-73
2023/10/02 09:45:14;;;;;;;;;;;;;;;20.48;100.00;101938.81;5028297;28;20473;-74
2023/10/02 09:47:42;;;;;;;;;;;;;;;20.52;100.00;101935.59;5028087;28;20009;-74
2023/10/02 09:50:12;;;;;;;;;;;;;;;20.72;100.00;101920.91;5027996;28;19924;-75
2023/10/02 09:52:39;;;;;;;;;;;;;;;21.10;100.00;101927.81;5033181;28;20058;-72
2023/10/02 09:55:05;;;;;;;;;;;;;;;21.66;100.00;101921.91;5032038;28;19921;-73
2023/10/02 09:57:50;;;;;;;;;;;;;;;21.87;100.00;101917.84;5031986;28;19936;-76
2023/10/02 10:00:34;;;;;;;;;;;;;;;21.94;100.00;101921.63;5026313;28;20058;-74
2023/10/02 10:03:22;;;;;;;;;;;;;;;22.04;100.00;101926.94;5014794;28;19931;-73
2023/10/02 10:06:05;;;;;;;;;;;;;;;21.96;100.00;101932.38;5025006;28;19920;-74
2023/10/02 10:09:18;;;;;;;;;;;;;;;22.42;100.00;101923.69;5028444;28;20221;-75
2023/10/02 10:11:36;;;;;;;;;;;;;;;22.94;100.00;101918.84;5028780;28;20367;-73
2023/10/02 10:14:35;;;;;;;;;;;;;;;23.35;100.00;101914.09;5026514;28;19986;-73
2023/10/02 10:17:01;;;;;;;;;;;;;;;23.87;100.00;101917.22;5021783;28;19925;-73
2023/10/02 10:19:31;;;;;;;;;;;;;;;23.89;100.00;101911.53;5032324;28;19944;-74
2023/10/02 10:21:56;;;;;;;;;;;;;;;24.29;100.00;101914.19;5026729;28;20028;-73
2023/10/02 10:24:31;;;;;;;;;;;;;;;24.78;100.00;101913.72;5029266;28;20015;-73
2023/10/02 10:26:56;;;;;;;;;;;;;;;24.15;100.00;101905.72;5032356;28;19931;-75
2023/10/02 10:29:38;;;;;;;;;;;;;;;24.23;100.00;101902.06;5026296;28;19921;-73
2023/10/02 10:32:18;;;;;;;;;;;;;;;24.53;100.00;101907.63;5029969;28;19944;-73
2023/10/02 10:35:11;;;;;;;;;;;;;;;24.76;100.00;101902.09;5030043;28;19921;-73
2023/10/02 10:37:46;;;;;;;;;;;;;;;24.74;100.00;101903.31;5023825;28;19927;-75
2023/10/02 10:40:44;;;;;;;;;;;;;;;24.52;100.00;101901.25;5026172;28;19928;-74
2023/10/02 10:43:13;;;;;;;;;;;;;;;23.71;100.00;101896.25;5014591;28;19924;-77
2023/10/02 10:45:40;;;;;;;;;;;;;;;23.57;100.00;101875.94;5026271;28;20350;-73
2023/10/02 10:48:18;;;;;;;;;;;;;;;24.40;100.00;101898.13;5024842;28;19927;-73
2023/10/02 10:50:56;;;;;;;;;;;;;;;24.46;100.00;101893.78;5025711;28;20294;-77
2023/10/02 10:53:32;;;;;;;;;;;;;;;24.34;100.00;101887.91;5029646;28;20689;-76
2023/10/02 10:56:05;;;;;;;;;;;;;;;23.83;100.00;101884.88;5025777;28;20363;-74
2023/10/02 10:58:33;;;;;;;;;;;;;;;23.60;100.00;101883.81;5026569;28;20561;-74
2023/10/02 11:01:03;;;;;;;;;;;;;;;23.49;100.00;101886.94;5009965;28;19983;-75
2023/10/02 11:03:30;;;;;;;;;;;;;;;24.20;100.00;101897.81;5025534;28;20378;-74
2023/10/02 11:06:01;;;;;;;;;;;;;;;23.94;100.00;101888.03;5008071;28;19921;-75
2023/10/02 11:08:28;;;;;;;;;;;;;;;23.58;100.00;101882.25;5013446;28;19927;-75
2023/10/02 11:11:21;;;;;;;;;;;;;;;23.58;100.00;101877.66;5028808;28;20337;-74
2023/10/02 11:13:54;;;;;;;;;;;;;;;23.36;100.00;101880.19;5033122;28;20738;-73
2023/10/02 11:16:34;;;;;;;;;;;;;;;23.35;100.00;101873.00;5028585;28;20433;-74
2023/10/02 11:19:14;;;;;;;;;;;;;;;23.05;100.00;101871.88;5028627;28;20414;-75
2023/10/02 11:21:46;;;;;;;;;;;;;;;22.71;100.00;101868.41;5022040;28;19925;-76
2023/10/02 11:24:20;;;;;;;;;;;;;;;22.91;100.00;101876.22;5033387;28;19936;-78
2023/10/02 11:26:45;;;;;;;;;;;;;;;23.44;100.00;101876.53;5027419;28;20434;-74
2023/10/02 11:29:20;;;;;;;;;;;;;;;23.85;100.00;101858.97;5024756;28;19932;-76
2023/10/02 11:31:55;;;;;;;;;;;;;;;23.89;100.00;101860.31;5030644;28;19929;-75
2023/10/02 11:34:20;;;;;;;;;;;;;;;23.23;100.00;101857.97;5014332;28;19920;-76
2023/10/02 11:36:52;;;;;;;;;;;;;;;22.88;100.00;101854.69;5025144;28;20379;-77
2023/10/02 11:39:19;;;;;;;;;;;;;;;23.26;100.00;101856.78;5033117;28;19928;-75
2023/10/02 11:41:46;;;;;;;;;;;;;;;23.29;100.00;101850.94;5033796;28;20708;-78
2023/10/02 11:44:12;;;;;;;;;;;;;;;23.23;100.00;101854.41;5030976;28;19932;-76
2023/10/02 11:46:37;;;;;;;;;;;;;;;23.15;100.00;101852.53;5012171;28;19921;-75
2023/10/02 11:49:03;;;;;;;;;;;;;;;22.94;100.00;101858.59;5034558;28;19959;-77
2023/10/02 11:51:33;;;;;;;;;;;;;;;22.55;100.00;101854.78;5031098;28;19928;-74
2023/10/02 11:53:58;;;;;;;;;;;;;;;22.33;100.00;101855.28;5032989;28;20043;-74
2023/10/02 11:56:24;;;;;;;;;;;;;;;22.62;100.00;101851.16;5028858;28;19931;-74
2023/10/02 11:58:52;;;;;;;;;;;;;;;22.63;100.00;101846.56;5033181;28;19948;-74
2023/10/02 12:01:17;;;;;;;;;;;;;;;22.81;100.00;101840.00;5034480;28;19917;-74
2023/10/02 12:03:42;;;;;;;;;;;;;;;23.06;100.00;101840.72;5025191;28;19927;-75
2023/10/02 12:06:14;;;;;;;;;;;;;;;23.44;100.00;101840.91;5031397;28;19924;-74
2023/10/02 12:08:40;;;;;;;;;;;;;;;23.83;100.00;101843.75;5013469;28;20003;-74
2023/10/02 12:11:08;;;;;;;;;;;;;;;24.38;100.00;101848.03;5025673;28;19986;-74
2023/10/02 12:13:33;;;;;;;;;;;;;;;24.55;100.00;101835.00;5013587;28;19928;-74
2023/10/02 12:15:58;;;;;;;;;;;;;;;24.63;100.00;101836.78;5028698;28;19926;-74
2023/10/02 12:18:24;;;;;;;;;;;;;;;25.19;100.00;101824.47;5034956;28;19928;-74
2023/10/02 12:20:49;;;;;;;;;;;;;;;25.83;100.00;101819.22;5035217;28;19925;-74
2023/10/02 12:23:16;;;;;;;;;;;;;;;25.07;100.00;101812.28;5012999;28;19920;-75
2023/10/02 12:25:50;;;;;;;;;;;;;;;24.66;100.00;101828.19;5034714;28;19916;-74
2023/10/02 12:28:15;;;;;;;;;;;;;;;24.98;100.00;101817.88;5027261;28;19925;-74
2023/10/02 12:30:40;;;;;;;;;;;;;;;25.44;100.00;101830.50;5028278;28;19931;-74
2023/10/02 12:33:06;;;;;;;;;;;;;;;25.80;100.00;101822.41;5013735;28;19916;-75
2023/10/02 12:35:32;;;;;;;;;;;;;;;25.97;100.00;101795.44;5032038;28;19924;-74
2023/10/02 12:37:58;;;;;;;;;;;;;;;26.77;98.94;101806.16;5029942;28;19984;-74
2023/10/02 12:40:31;;;;;;;;;;;;;;;27.01;94.21;101814.97;5033520;28;20015;-74
2023/10/02 12:42:56;;;;;;;;;;;;;;;25.97;100.00;101807.31;5027800;28;19928;-74
2023/10/02 12:45:22;;;;;;;;;;;;;;;25.96;100.00;101799.22;5032975;28;19913;-75
2023/10/02 12:47:47;;;;;;;;;;;;;;;26.12;100.00;101799.00;5025006;28;19921;-74
2023/10/02 12:50:12;;;;;;;;;;;;;;;25.52;100.00;101792.94;5030900;28;20330;-76
2023/10/02 12:52:38;;;;;;;;;;;;;;;25.61;100.00;101783.50;5022302;28;19924;-75
2023/10/02 12:55:05;;;;;;;;;;;;;;;25.29;100.00;101781.03;5031470;28;20386;-74
2023/10/02 12:57:30;;;;;;;;;;;;;;;25.01;100.00;101773.53;5021643;28;19959;-74
2023/10/02 12:59:55;;;;;;;;;;;;;;;25.12;100.00;101763.94;5018470;28;21524;-74
2023/10/02 13:02:21;;;;;;;;;;;;;;;25.66;100.00;101770.00;5025578;28;20379;-76
2023/10/02 13:04:46;;;;;;;;;;;;;;;26.01;100.00;101763.72;5027724;28;20423;-76
2023/10/02 13:07:11;;;;;;;;;;;;;;;25.96;100.00;101757.97;5021232;28;19924;-76
2023/10/02 13:09:36;;;;;;;;;;;;;;;25.88;100.00;101761.72;5030633;28;19959;-75
2023/10/02 13:12:02;;;;;;;;;;;;;;;25.94;100.00;101765.59;5031161;28;20050;-76
2023/10/02 13:14:27;;;;;;;;;;;;;;;25.61;100.00;101756.00;5029612;28;19917;-76
2023/10/02 13:16:53;;;;;;;;;;;;;;;25.69;100.00;101749.53;5030522;28;19963;-76
2023/10/02 13:19:18;;;;;;;;;;;;;;;25.74;100.00;101749.75;5025299;28;20024;-77
2023/10/02 13:21:44;;;;;;;;;;;;;;;25.64;100.00;101754.78;5022826;28;20333;-74